createdAt,value
2018-04-13T00:00:50.591Z,0
2018-04-13T00:01:50.844Z,0
2018-04-13T00:02:50.841Z,0
2018-04-13T00:03:50.585Z,0
2018-04-13T00:04:50.855Z,0
2018-04-13T00:05:50.831Z,0
2018-04-13T00:06:50.821Z,0
2018-04-13T00:07:50.316Z,0
2018-04-13T00:08:50.310Z,0
2018-04-13T00:09:50.835Z,0
2018-04-13T00:10:50.813Z,0
2018-04-13T00:11:50.810Z,0
2018-04-13T00:12:50.316Z,0
2018-04-13T00:13:50.797Z,0
2018-04-13T00:14:50.806Z,0
2018-04-13T00:15:50.546Z,0
2018-04-13T00:16:50.795Z,0
2018-04-13T00:17:50.285Z,0
2018-04-13T00:18:50.532Z,0
2018-04-13T00:19:50.548Z,0
2018-04-13T00:20:50.268Z,0
2018-04-13T00:21:50.778Z,0
2018-04-13T00:22:50.513Z,0
2018-04-13T00:23:50.512Z,0
2018-04-13T00:24:50.760Z,0
2018-04-13T00:25:50.779Z,0
2018-04-13T00:26:50.756Z,0
2018-04-13T00:27:50.241Z,0
2018-04-13T00:28:50.742Z,0
2018-04-13T00:29:50.493Z,0
2018-04-13T00:30:50.482Z,0
2018-04-13T00:31:50.223Z,0
2018-04-13T00:32:50.494Z,0
2018-04-13T00:33:50.729Z,0
2018-04-13T00:34:50.486Z,0
2018-04-13T00:35:50.713Z,0
2018-04-13T00:36:50.468Z,0
2018-04-13T00:37:50.454Z,0
2018-04-13T00:38:50.736Z,0
2018-04-13T00:39:50.716Z,0
2018-04-13T00:40:50.452Z,0
2018-04-13T00:41:50.454Z,0
2018-04-13T00:42:50.696Z,0
2018-04-13T00:43:50.685Z,0
2018-04-13T00:44:50.678Z,0
2018-04-13T00:45:50.676Z,0
2018-04-13T00:46:50.674Z,0
2018-04-13T00:47:50.673Z,0
2018-04-13T00:48:50.664Z,0
2018-04-13T00:49:50.665Z,0
2018-04-13T00:50:50.406Z,0
2018-04-13T00:51:49.894Z,0
2018-04-13T00:52:49.888Z,0
2018-04-13T00:53:50.643Z,0
2018-04-13T00:54:50.392Z,0
2018-04-13T00:55:50.651Z,0
2018-04-13T00:56:50.635Z,0
2018-04-13T00:57:50.633Z,0
2018-04-13T00:58:50.636Z,0
2018-04-13T00:59:50.623Z,0
2018-04-13T01:00:50.129Z,0
2018-04-13T01:01:50.626Z,0
2018-04-13T01:02:50.608Z,0
2018-04-13T01:03:50.605Z,0
2018-04-13T01:04:50.352Z,0
2018-04-13T01:05:50.606Z,0
2018-04-13T01:06:50.594Z,0
2018-04-13T01:07:50.591Z,0
2018-04-13T01:08:50.708Z,0
2018-04-13T01:09:50.587Z,0
2018-04-13T01:10:50.326Z,0
2018-04-13T01:11:50.320Z,0
2018-04-13T01:12:50.077Z,0
2018-04-13T01:13:49.809Z,0
2018-04-13T01:14:50.560Z,0
2018-04-13T01:15:50.560Z,0
2018-04-13T01:16:50.048Z,0
2018-04-13T01:17:49.799Z,0
2018-04-13T01:18:50.562Z,0
2018-04-13T01:19:50.289Z,0
2018-04-13T01:20:50.556Z,0
2018-04-13T01:21:50.543Z,0
2018-04-13T01:22:50.275Z,0
2018-04-13T01:23:50.022Z,0
2018-04-13T01:24:50.017Z,0
2018-04-13T01:25:50.520Z,0
2018-04-13T01:26:50.513Z,0
2018-04-13T01:27:50.262Z,0
2018-04-13T01:28:50.264Z,0
2018-04-13T01:29:49.999Z,0
2018-04-13T01:30:50.501Z,0
2018-04-13T01:31:50.497Z,0
2018-04-13T01:32:50.248Z,0
2018-04-13T01:33:50.491Z,0
2018-04-13T01:34:50.483Z,0
2018-04-13T01:35:50.485Z,0
2018-04-13T01:36:50.477Z,0
2018-04-13T01:37:50.225Z,0
2018-04-13T01:38:50.220Z,0
2018-04-13T01:39:50.468Z,0
2018-04-13T01:40:50.207Z,0
2018-04-13T01:41:50.454Z,0
2018-04-13T01:42:50.454Z,0
2018-04-13T01:43:50.200Z,0
2018-04-13T01:44:50.438Z,0
2018-04-13T01:45:50.446Z,0
2018-04-13T01:46:50.441Z,0
2018-04-13T01:47:50.437Z,0
2018-04-13T01:48:50.436Z,0
2018-04-13T01:49:50.426Z,0
2018-04-13T01:50:50.424Z,0
2018-04-13T01:51:50.180Z,0
2018-04-13T01:52:50.172Z,0
2018-04-13T01:53:49.912Z,0
2018-04-13T01:54:50.403Z,0
2018-04-13T01:55:50.407Z,0
2018-04-13T01:56:50.138Z,0
2018-04-13T01:57:49.889Z,0
2018-04-13T01:58:50.391Z,0
2018-04-13T01:59:50.384Z,0
2018-04-13T02:00:50.376Z,0
2018-04-13T02:01:50.376Z,0
2018-04-13T02:02:50.121Z,0
2018-04-13T02:03:50.364Z,0
2018-04-13T02:04:50.110Z,0
2018-04-13T02:05:50.115Z,0
2018-04-13T02:06:50.099Z,0
2018-04-13T02:07:49.848Z,0
2018-04-13T02:08:50.350Z,0
2018-04-13T02:09:49.844Z,0
2018-04-13T02:10:50.336Z,0
2018-04-13T02:11:50.336Z,0
2018-04-13T02:12:49.822Z,0
2018-04-13T02:13:50.325Z,0
2018-04-13T02:14:50.065Z,0
2018-04-13T02:15:50.320Z,0
2018-04-13T02:16:50.310Z,0
2018-04-13T02:17:50.309Z,0
2018-04-13T02:18:50.305Z,0
2018-04-13T02:19:50.297Z,0
2018-04-13T02:20:50.304Z,0
2018-04-13T02:21:50.048Z,0
2018-04-13T02:22:50.286Z,0
2018-04-13T02:23:50.279Z,0
2018-04-13T02:24:50.280Z,0
2018-04-13T02:25:50.029Z,0
2018-04-13T02:26:50.322Z,0
2018-04-13T02:27:50.010Z,0
2018-04-13T02:28:50.021Z,0
2018-04-13T02:29:49.496Z,0
2018-04-13T02:30:50.000Z,0
2018-04-13T02:31:50.255Z,0
2018-04-13T02:32:50.251Z,0
2018-04-13T02:33:49.995Z,0
2018-04-13T02:34:50.514Z,0
2018-04-13T02:35:49.730Z,0
2018-04-13T02:36:49.971Z,0
2018-04-13T02:37:50.223Z,0
2018-04-13T02:38:50.235Z,0
2018-04-13T02:39:50.233Z,0
2018-04-13T02:40:49.734Z,0
2018-04-13T02:41:50.214Z,0
2018-04-13T02:42:49.955Z,0
2018-04-13T02:43:49.691Z,0
2018-04-13T02:44:50.192Z,0
2018-04-13T02:45:50.188Z,0
2018-04-13T02:46:50.251Z,0
2018-04-13T02:47:49.931Z,0
2018-04-13T02:48:49.921Z,0
2018-04-13T02:49:50.170Z,0
2018-04-13T02:50:50.236Z,0
2018-04-13T02:51:50.173Z,0
2018-04-13T02:52:49.656Z,0
2018-04-13T02:53:49.917Z,0
2018-04-13T02:54:49.904Z,0
2018-04-13T02:55:49.650Z,0
2018-04-13T02:56:50.154Z,0
2018-04-13T02:57:50.155Z,0
2018-04-13T02:58:49.887Z,0
2018-04-13T02:59:50.281Z,0
2018-04-13T03:00:49.619Z,0
2018-04-13T03:01:49.871Z,0
2018-04-13T03:02:49.872Z,0
2018-04-13T03:03:49.348Z,0
2018-04-13T03:04:49.863Z,0
2018-04-13T03:05:50.110Z,0
2018-04-13T03:06:50.097Z,0
2018-04-13T03:07:49.858Z,0
2018-04-13T03:08:50.093Z,0
2018-04-13T03:09:50.104Z,0
2018-04-13T03:10:50.081Z,0
2018-04-13T03:11:49.832Z,0
2018-04-13T03:12:49.846Z,0
2018-04-13T03:13:50.067Z,0
2018-04-13T03:14:49.318Z,0
2018-04-13T03:15:50.061Z,0
2018-04-13T03:16:50.064Z,0
2018-04-13T03:17:49.807Z,0
2018-04-13T03:18:49.848Z,0
2018-04-13T03:19:49.804Z,0
2018-04-13T03:20:50.068Z,0
2018-04-13T03:21:50.047Z,0
2018-04-13T03:22:49.794Z,0
2018-04-13T03:23:50.025Z,0
2018-04-13T03:24:49.531Z,0
2018-04-13T03:25:50.022Z,0
2018-04-13T03:26:50.021Z,0
2018-04-13T03:27:50.016Z,0
2018-04-13T03:28:50.010Z,0
2018-04-13T03:29:50.046Z,0
2018-04-13T03:30:49.759Z,0
2018-04-13T03:31:50.038Z,0
2018-04-13T03:32:49.997Z,0
2018-04-13T03:33:49.981Z,0
2018-04-13T03:34:49.723Z,0
2018-04-13T03:35:49.725Z,0
2018-04-13T03:36:49.975Z,0
2018-04-13T03:37:49.964Z,0
2018-04-13T03:38:49.969Z,0
2018-04-13T03:39:49.966Z,0
2018-04-13T03:40:49.952Z,0
2018-04-13T03:41:49.441Z,0
2018-04-13T03:42:49.951Z,0
2018-04-13T03:43:49.940Z,0
2018-04-13T03:44:49.952Z,0
2018-04-13T03:45:49.689Z,0
2018-04-13T03:46:49.678Z,0
2018-04-13T03:47:49.944Z,0
2018-04-13T03:48:49.925Z,0
2018-04-13T03:49:49.675Z,0
2018-04-13T03:50:49.966Z,0
2018-04-13T03:51:49.919Z,0
2018-04-13T03:52:49.915Z,0
2018-04-13T03:53:49.901Z,0
2018-04-13T03:54:49.904Z,0
2018-04-13T03:55:49.896Z,0
2018-04-13T03:56:49.638Z,0
2018-04-13T03:57:49.889Z,0
2018-04-13T03:58:50.015Z,0
2018-04-13T03:59:49.638Z,0
2018-04-13T04:00:49.372Z,0
2018-04-13T04:01:49.622Z,0
2018-04-13T04:02:49.620Z,0
2018-04-13T04:03:49.607Z,0
2018-04-13T04:04:49.606Z,0
2018-04-13T04:05:49.855Z,0
2018-04-13T04:06:49.600Z,0
2018-04-13T04:07:49.846Z,0
2018-04-13T04:08:49.334Z,5
2018-04-13T04:09:49.593Z,5
2018-04-13T04:10:49.836Z,5
2018-04-13T04:11:49.830Z,5
2018-04-13T04:12:49.858Z,5
2018-04-13T04:13:49.829Z,5
2018-04-13T04:14:49.818Z,5
2018-04-13T04:15:49.817Z,10
2018-04-13T04:16:49.557Z,10
2018-04-13T04:17:49.807Z,10
2018-04-13T04:18:49.808Z,10
2018-04-13T04:19:49.549Z,10
2018-04-13T04:20:49.792Z,10
2018-04-13T04:21:49.813Z,10
2018-04-13T04:22:49.788Z,15
2018-04-13T04:23:49.786Z,15
2018-04-13T04:24:49.776Z,20
2018-04-13T04:25:49.524Z,20
2018-04-13T04:26:49.778Z,25
2018-04-13T04:27:49.512Z,25
2018-04-13T04:28:49.764Z,30
2018-04-13T04:29:49.758Z,30
2018-04-13T04:30:49.504Z,30
2018-04-13T04:31:49.501Z,35
2018-04-13T04:32:49.750Z,35
2018-04-13T04:33:49.747Z,40
2018-04-13T04:34:49.745Z,40
2018-04-13T04:35:49.481Z,45
2018-04-13T04:36:49.734Z,50
2018-04-13T04:37:49.482Z,50
2018-04-13T04:38:49.219Z,50
2018-04-13T04:39:49.220Z,50
2018-04-13T04:40:49.721Z,55
2018-04-13T04:41:49.716Z,55
2018-04-13T04:42:49.476Z,60
2018-04-13T04:43:49.453Z,65
2018-04-13T04:44:48.950Z,70
2018-04-13T04:45:49.697Z,75
2018-04-13T04:46:49.700Z,75
2018-04-13T04:47:49.719Z,80
2018-04-13T04:48:49.699Z,80
2018-04-13T04:49:49.687Z,80
2018-04-13T04:50:49.438Z,80
2018-04-13T04:51:49.691Z,80
2018-04-13T04:52:49.684Z,80
2018-04-13T04:53:49.434Z,80
2018-04-13T04:54:49.413Z,75
2018-04-13T04:55:49.669Z,70
2018-04-13T04:56:49.725Z,60
2018-04-13T04:57:49.667Z,55
2018-04-13T04:58:49.406Z,55
2018-04-13T04:59:49.759Z,60
2018-04-13T05:00:49.387Z,60
2018-04-13T05:01:49.392Z,60
2018-04-13T05:02:49.633Z,60
2018-04-13T05:03:49.430Z,60
2018-04-13T05:04:49.623Z,65
2018-04-13T05:05:49.622Z,60
2018-04-13T05:06:49.617Z,60
2018-04-13T05:07:49.625Z,55
2018-04-13T05:08:49.632Z,55
2018-04-13T05:09:49.362Z,50
2018-04-13T05:10:49.603Z,50
2018-04-13T05:11:48.867Z,45
2018-04-13T05:12:49.599Z,40
2018-04-13T05:13:49.335Z,40
2018-04-13T05:14:49.589Z,35
2018-04-13T05:15:49.079Z,35
2018-04-13T05:16:49.083Z,30
2018-04-13T05:17:49.321Z,30
2018-04-13T05:18:49.576Z,30
2018-04-13T05:19:49.598Z,30
2018-04-13T05:20:49.565Z,30
2018-04-13T05:21:49.312Z,35
2018-04-13T05:22:49.554Z,35
2018-04-13T05:23:49.553Z,45
2018-04-13T05:24:49.549Z,50
2018-04-13T05:25:49.297Z,55
2018-04-13T05:26:49.548Z,60
2018-04-13T05:27:49.545Z,60
2018-04-13T05:28:49.296Z,65
2018-04-13T05:29:49.280Z,70
2018-04-13T05:30:49.276Z,80
2018-04-13T05:31:49.275Z,85
2018-04-13T05:32:49.012Z,90
2018-04-13T05:33:49.541Z,95
2018-04-13T05:34:49.516Z,95
2018-04-13T05:35:49.002Z,95
2018-04-13T05:36:49.503Z,95
2018-04-13T05:37:49.001Z,95
2018-04-13T05:38:49.515Z,105
2018-04-13T05:39:49.273Z,115
2018-04-13T05:40:49.492Z,135
2018-04-13T05:41:48.981Z,140
2018-04-13T05:42:49.232Z,150
2018-04-13T05:43:49.482Z,155
2018-04-13T05:44:49.231Z,160
2018-04-13T05:45:48.968Z,160
2018-04-13T05:46:49.218Z,155
2018-04-13T05:47:48.980Z,155
2018-04-13T05:48:48.964Z,150
2018-04-13T05:49:49.456Z,140
2018-04-13T05:50:49.219Z,125
2018-04-13T05:51:48.952Z,115
2018-04-13T05:52:49.385Z,110
2018-04-13T05:53:49.210Z,120
2018-04-13T05:54:49.448Z,125
2018-04-13T05:55:49.443Z,125
2018-04-13T05:56:49.239Z,115
2018-04-13T05:57:49.468Z,90
2018-04-13T05:58:49.202Z,65
2018-04-13T05:59:49.196Z,50
2018-04-13T06:00:49.459Z,40
2018-04-13T06:01:49.172Z,35
2018-04-13T06:02:49.168Z,40
2018-04-13T06:03:49.443Z,40
2018-04-13T06:04:49.405Z,35
2018-04-13T06:05:49.149Z,30
2018-04-13T06:06:49.149Z,25
2018-04-13T06:07:49.140Z,30
2018-04-13T06:08:49.413Z,35
2018-04-13T06:09:49.165Z,40
2018-04-13T06:10:48.890Z,40
2018-04-13T06:11:49.387Z,35
2018-04-13T06:12:49.129Z,35
2018-04-13T06:13:49.377Z,35
2018-04-13T06:14:49.116Z,40
2018-04-13T06:15:49.369Z,35
2018-04-13T06:16:49.369Z,30
2018-04-13T06:17:49.130Z,30
2018-04-13T06:18:48.918Z,30
2018-04-13T06:19:49.361Z,30
2018-04-13T06:20:49.106Z,30
2018-04-13T06:21:49.347Z,30
2018-04-13T06:22:49.379Z,35
2018-04-13T06:23:49.349Z,35
2018-04-13T06:24:49.348Z,35
2018-04-13T06:25:49.086Z,35
2018-04-13T06:26:49.081Z,40
2018-04-13T06:27:49.323Z,45
2018-04-13T06:28:49.365Z,50
2018-04-13T06:29:49.096Z,50
2018-04-13T06:30:49.325Z,50
2018-04-13T06:31:49.310Z,55
2018-04-13T06:32:49.061Z,50
2018-04-13T06:33:49.060Z,50
2018-04-13T06:34:49.092Z,45
2018-04-13T06:35:49.293Z,40
2018-04-13T06:36:49.288Z,40
2018-04-13T06:37:49.060Z,35
2018-04-13T06:38:49.039Z,35
2018-04-13T06:39:49.028Z,35
2018-04-13T06:40:49.037Z,35
2018-04-13T06:41:49.023Z,40
2018-04-13T06:42:48.758Z,45
2018-04-13T06:43:49.552Z,55
2018-04-13T06:44:49.279Z,70
2018-04-13T06:45:49.271Z,100
2018-04-13T06:46:49.265Z,140
2018-04-13T06:47:49.246Z,175
2018-04-13T06:48:49.581Z,205
2018-04-13T06:49:48.988Z,200
2018-04-13T06:50:49.228Z,170
2018-04-13T06:51:49.250Z,140
2018-04-13T06:52:48.724Z,115
2018-04-13T06:53:48.788Z,105
2018-04-13T06:54:49.218Z,100
2018-04-13T06:55:49.229Z,100
2018-04-13T06:56:49.212Z,105
2018-04-13T06:57:48.990Z,110
2018-04-13T06:58:49.210Z,115
2018-04-13T06:59:48.948Z,115
2018-04-13T07:00:48.948Z,110
2018-04-13T07:01:49.192Z,95
2018-04-13T07:02:49.187Z,85
2018-04-13T07:03:48.962Z,75
2018-04-13T07:04:48.929Z,65
2018-04-13T07:05:48.932Z,60
2018-04-13T07:06:49.166Z,65
2018-04-13T07:07:49.193Z,65
2018-04-13T07:08:48.910Z,65
2018-04-13T07:09:48.962Z,70
2018-04-13T07:10:48.889Z,80
2018-04-13T07:11:49.141Z,95
2018-04-13T07:12:49.193Z,110
2018-04-13T07:13:49.374Z,120
2018-04-13T07:14:49.127Z,120
2018-04-13T07:15:49.134Z,110
2018-04-13T07:16:48.862Z,105
2018-04-13T07:17:48.860Z,95
2018-04-13T07:18:49.109Z,85
2018-04-13T07:19:49.107Z,65
2018-04-13T07:20:48.864Z,55
2018-04-13T07:21:48.846Z,50
2018-04-13T07:22:49.104Z,50
2018-04-13T07:23:49.134Z,55
2018-04-13T07:24:48.833Z,65
2018-04-13T07:25:48.840Z,85
2018-04-13T07:26:48.630Z,95
2018-04-13T07:27:48.325Z,100
2018-04-13T07:28:48.807Z,90
2018-04-13T07:29:49.074Z,75
2018-04-13T07:30:48.874Z,60
2018-04-13T07:31:50.619Z,45
2018-04-13T07:32:49.055Z,45
2018-04-13T07:33:49.308Z,50
2018-04-13T07:34:48.784Z,60
2018-04-13T07:35:49.790Z,70
2018-04-13T07:36:49.043Z,70
2018-04-13T07:37:49.046Z,65
2018-04-13T07:38:49.235Z,70
2018-04-13T07:39:49.272Z,85
2018-04-13T07:40:48.775Z,105
2018-04-13T07:41:48.252Z,105
2018-04-13T07:42:49.637Z,100
2018-04-13T07:43:48.762Z,115
2018-04-13T07:44:48.954Z,130
2018-04-13T07:45:48.752Z,145
2018-04-13T07:46:48.238Z,160
2018-04-13T07:47:48.724Z,155
2018-04-13T07:48:48.723Z,140
2018-04-13T07:49:49.025Z,130
2018-04-13T07:50:49.164Z,130
2018-04-13T07:51:48.935Z,140
2018-04-13T07:52:49.258Z,150
2018-04-13T07:53:48.948Z,155
2018-04-13T07:54:48.466Z,160
2018-04-13T07:55:48.431Z,160
2018-04-13T07:56:48.937Z,160
2018-04-13T07:57:48.943Z,150
2018-04-13T07:58:48.939Z,140
2018-04-13T07:59:48.990Z,150
2018-04-13T08:00:48.672Z,165
2018-04-13T08:01:49.070Z,175
2018-04-13T08:02:48.910Z,165
2018-04-13T08:03:48.161Z,160
2018-04-13T08:04:48.652Z,155
2018-04-13T08:05:48.953Z,160
2018-04-13T08:06:48.375Z,160
2018-04-13T08:07:48.119Z,165
2018-04-13T08:08:48.883Z,185
2018-04-13T08:09:49.016Z,225
2018-04-13T08:10:48.931Z,290
2018-04-13T08:11:48.371Z,360
2018-04-13T08:12:48.361Z,420
2018-04-13T08:13:48.099Z,460
2018-04-13T08:14:49.039Z,485
2018-04-13T08:15:48.333Z,605
2018-04-13T08:16:48.838Z,715
2018-04-13T08:17:48.316Z,790
2018-04-13T08:18:48.336Z,815
2018-04-13T08:19:48.309Z,700
2018-04-13T08:20:48.810Z,620
2018-04-13T08:21:48.829Z,565
2018-04-13T08:22:48.864Z,545
2018-04-13T08:23:48.878Z,565
2018-04-13T08:24:48.607Z,560
2018-04-13T08:25:48.637Z,530
2018-04-13T08:26:48.578Z,510
2018-04-13T08:27:48.572Z,500
2018-04-13T08:28:48.803Z,490
2018-04-13T08:29:48.811Z,475
2018-04-13T08:30:48.527Z,475
2018-04-13T08:31:48.416Z,475
2018-04-13T08:32:48.346Z,490
2018-04-13T08:33:48.432Z,500
2018-04-13T08:34:48.300Z,490
2018-04-13T08:35:48.816Z,465
2018-04-13T08:36:48.516Z,420
2018-04-13T08:37:48.559Z,360
2018-04-13T08:38:48.317Z,315
2018-04-13T08:39:48.883Z,295
2018-04-13T08:40:48.280Z,295
2018-04-13T08:41:48.257Z,320
2018-04-13T08:42:48.011Z,375
2018-04-13T08:43:48.496Z,430
2018-04-13T08:44:48.891Z,475
2018-04-13T08:45:48.759Z,515
2018-04-13T08:46:48.815Z,540
2018-04-13T08:47:48.588Z,555
2018-04-13T08:48:49.149Z,550
2018-04-13T08:49:48.247Z,530
2018-04-13T08:50:48.584Z,515
2018-04-13T08:51:48.529Z,500
2018-04-13T08:52:48.040Z,485
2018-04-13T08:53:48.600Z,475
2018-04-13T08:54:48.503Z,475
2018-04-13T08:55:48.472Z,500
2018-04-13T08:56:48.459Z,580
2018-04-13T08:57:49.093Z,680
2018-04-13T08:58:48.696Z,755
2018-04-13T08:59:48.699Z,830
2018-04-13T09:00:48.726Z,915
2018-04-13T09:01:48.822Z,965
2018-04-13T09:02:48.750Z,945
2018-04-13T09:03:48.462Z,925
2018-04-13T09:04:48.468Z,910
2018-04-13T09:05:48.224Z,885
2018-04-13T09:06:48.863Z,805
2018-04-13T09:07:48.167Z,720
2018-04-13T09:08:48.170Z,665
2018-04-13T09:09:48.718Z,635
2018-04-13T09:10:47.910Z,630
2018-04-13T09:11:48.182Z,645
2018-04-13T09:12:48.162Z,650
2018-04-13T09:13:48.679Z,630
2018-04-13T09:14:48.406Z,575
2018-04-13T09:15:48.158Z,535
2018-04-13T09:16:48.443Z,545
2018-04-13T09:17:48.431Z,595
2018-04-13T09:18:48.153Z,650
2018-04-13T09:19:48.139Z,665
2018-04-13T09:20:49.049Z,660
2018-04-13T09:21:48.170Z,635
2018-04-13T09:22:48.430Z,640
2018-04-13T09:23:48.415Z,670
2018-04-13T09:24:48.417Z,695
2018-04-13T09:25:48.424Z,685
2018-04-13T09:26:48.130Z,660
2018-04-13T09:27:48.471Z,640
2018-04-13T09:28:48.152Z,645
2018-04-13T09:29:48.437Z,665
2018-04-13T09:30:48.263Z,655
2018-04-13T09:31:48.158Z,630
2018-04-13T09:32:48.518Z,595
2018-04-13T09:33:49.179Z,555
2018-04-13T09:34:48.239Z,545
2018-04-13T09:35:48.041Z,535
2018-04-13T09:36:47.875Z,530
2018-04-13T09:37:48.542Z,520
2018-04-13T09:38:48.918Z,510
2018-04-13T09:39:48.794Z,485
2018-04-13T09:40:48.179Z,475
2018-04-13T09:41:49.044Z,495
2018-04-13T09:42:48.722Z,525
2018-04-13T09:43:48.464Z,535
2018-04-13T09:44:48.665Z,525
2018-04-13T09:45:48.501Z,505
2018-04-13T09:46:48.176Z,495
2018-04-13T09:47:48.416Z,485
2018-04-13T09:48:48.746Z,480
2018-04-13T09:49:48.436Z,470
2018-04-13T09:50:48.273Z,465
2018-04-13T09:51:48.258Z,455
2018-04-13T09:52:48.479Z,450
2018-04-13T09:53:49.245Z,445
2018-04-13T09:54:48.726Z,410
2018-04-13T09:55:48.136Z,355
2018-04-13T09:56:48.787Z,305
2018-04-13T09:57:48.673Z,255
2018-04-13T09:58:48.687Z,220
2018-04-13T09:59:48.657Z,205
2018-04-13T10:00:48.689Z,190
2018-04-13T10:01:48.660Z,175
2018-04-13T10:02:48.357Z,175
2018-04-13T10:03:48.876Z,185
2018-04-13T10:04:48.704Z,200
2018-04-13T10:05:48.494Z,215
2018-04-13T10:06:48.661Z,230
2018-04-13T10:07:48.505Z,245
2018-04-13T10:08:48.376Z,270
2018-04-13T10:09:48.714Z,295
2018-04-13T10:10:48.492Z,320
2018-04-13T10:11:48.702Z,340
2018-04-13T10:12:48.446Z,345
2018-04-13T10:13:48.730Z,355
2018-04-13T10:14:48.934Z,375
2018-04-13T10:15:48.935Z,380
2018-04-13T10:16:48.184Z,355
2018-04-13T10:17:48.441Z,325
2018-04-13T10:18:48.676Z,285
2018-04-13T10:19:48.630Z,270
2018-04-13T10:20:48.145Z,265
2018-04-13T10:21:48.913Z,270
2018-04-13T10:22:47.890Z,280
2018-04-13T10:23:48.157Z,305
2018-04-13T10:24:48.640Z,335
2018-04-13T10:25:48.354Z,345
2018-04-13T10:26:48.350Z,340
2018-04-13T10:27:48.656Z,330
2018-04-13T10:28:48.320Z,325
2018-04-13T10:29:48.380Z,320
2018-04-13T10:30:48.641Z,310
2018-04-13T10:31:48.319Z,300
2018-04-13T10:32:48.063Z,300
2018-04-13T10:33:48.314Z,290
2018-04-13T10:34:48.574Z,270
2018-04-13T10:35:48.304Z,245
2018-04-13T10:36:48.556Z,230
2018-04-13T10:37:48.590Z,220
2018-04-13T10:38:47.784Z,225
2018-04-13T10:39:48.542Z,230
2018-04-13T10:40:48.059Z,245
2018-04-13T10:41:48.275Z,265
2018-04-13T10:42:48.722Z,280
2018-04-13T10:43:48.241Z,285
2018-04-13T10:44:48.499Z,285
2018-04-13T10:45:48.258Z,295
2018-04-13T10:46:48.533Z,310
2018-04-13T10:47:48.496Z,330
2018-04-13T10:48:48.471Z,355
2018-04-13T10:49:48.226Z,395
2018-04-13T10:50:48.500Z,425
2018-04-13T10:51:48.236Z,440
2018-04-13T10:52:48.463Z,455
2018-04-13T10:53:48.463Z,450
2018-04-13T10:54:48.214Z,415
2018-04-13T10:55:48.465Z,390
2018-04-13T10:56:48.454Z,370
2018-04-13T10:57:47.950Z,340
2018-04-13T10:58:48.203Z,315
2018-04-13T10:59:48.463Z,280
2018-04-13T11:00:48.212Z,235
2018-04-13T11:01:48.180Z,225
2018-04-13T11:02:48.468Z,255
2018-04-13T11:03:48.547Z,315
2018-04-13T11:04:48.478Z,375
2018-04-13T11:05:48.228Z,430
2018-04-13T11:06:48.172Z,495
2018-04-13T11:07:48.166Z,575
2018-04-13T11:08:48.430Z,665
2018-04-13T11:09:48.410Z,740
2018-04-13T11:10:48.428Z,755
2018-04-13T11:11:48.457Z,750
2018-04-13T11:12:48.138Z,750
2018-04-13T11:13:48.402Z,745
2018-04-13T11:14:48.172Z,745
2018-04-13T11:15:47.894Z,740
2018-04-13T11:16:48.212Z,730
2018-04-13T11:17:48.149Z,715
2018-04-13T11:18:48.397Z,700
2018-04-13T11:19:48.377Z,685
2018-04-13T11:20:47.890Z,670
2018-04-13T11:21:48.455Z,670
2018-04-13T11:22:48.393Z,670
2018-04-13T11:23:48.390Z,685
2018-04-13T11:24:48.310Z,700
2018-04-13T11:25:48.380Z,715
2018-04-13T11:26:48.455Z,730
2018-04-13T11:27:47.893Z,735
2018-04-13T11:28:47.869Z,735
2018-04-13T11:29:47.872Z,735
2018-04-13T11:30:48.168Z,750
2018-04-13T11:31:48.437Z,745
2018-04-13T11:32:48.101Z,735
2018-04-13T11:33:48.095Z,725
2018-04-13T11:34:48.895Z,705
2018-04-13T11:35:48.458Z,690
2018-04-13T11:36:48.402Z,685
2018-04-13T11:37:48.349Z,680
2018-04-13T11:38:47.852Z,670
2018-04-13T11:39:47.910Z,675
2018-04-13T11:40:48.400Z,670
2018-04-13T11:41:48.088Z,675
2018-04-13T11:42:48.344Z,675
2018-04-13T11:43:48.090Z,675
2018-04-13T11:44:48.341Z,680
2018-04-13T11:45:48.091Z,690
2018-04-13T11:46:48.349Z,680
2018-04-13T11:47:48.095Z,665
2018-04-13T11:48:48.198Z,665
2018-04-13T11:49:48.437Z,680
2018-04-13T11:50:48.361Z,690
2018-04-13T11:51:48.411Z,690
2018-04-13T11:52:47.582Z,685
2018-04-13T11:53:48.330Z,690
2018-04-13T11:54:48.105Z,680
2018-04-13T11:55:48.085Z,675
2018-04-13T11:56:48.076Z,670
2018-04-13T11:57:48.347Z,660
2018-04-13T11:58:48.343Z,645
2018-04-13T11:59:48.339Z,625
2018-04-13T12:00:48.333Z,595
2018-04-13T12:01:48.340Z,550
2018-04-13T12:02:47.827Z,515
2018-04-13T12:03:48.382Z,475
2018-04-13T12:04:47.819Z,455
2018-04-13T12:05:48.330Z,455
2018-04-13T12:06:48.091Z,480
2018-04-13T12:07:47.817Z,530
2018-04-13T12:08:48.318Z,575
2018-04-13T12:09:48.070Z,595
2018-04-13T12:10:48.074Z,605
2018-04-13T12:11:47.824Z,610
2018-04-13T12:12:48.118Z,610
2018-04-13T12:13:47.860Z,595
2018-04-13T12:14:48.372Z,570
2018-04-13T12:15:48.220Z,560
2018-04-13T12:16:48.096Z,535
2018-04-13T12:17:48.328Z,520
2018-04-13T12:18:47.818Z,515
2018-04-13T12:19:48.085Z,520
2018-04-13T12:20:47.828Z,530
2018-04-13T12:21:48.339Z,540
2018-04-13T12:22:48.079Z,535
2018-04-13T12:23:48.085Z,540
2018-04-13T12:24:48.327Z,545
2018-04-13T12:25:48.331Z,535
2018-04-13T12:26:47.812Z,530
2018-04-13T12:27:48.072Z,530
2018-04-13T12:28:48.382Z,535
2018-04-13T12:29:48.091Z,555
2018-04-13T12:30:48.069Z,580
2018-04-13T12:31:48.069Z,605
2018-04-13T12:32:48.072Z,620
2018-04-13T12:33:48.061Z,630
2018-04-13T12:34:48.331Z,640
2018-04-13T12:35:48.316Z,640
2018-04-13T12:36:48.321Z,635
2018-04-13T12:37:47.827Z,640
2018-04-13T12:38:48.344Z,635
2018-04-13T12:39:47.835Z,635
2018-04-13T12:40:48.338Z,610
2018-04-13T12:41:48.339Z,585
2018-04-13T12:42:48.100Z,560
2018-04-13T12:43:48.091Z,545
2018-04-13T12:44:48.075Z,545
2018-04-13T12:45:48.138Z,530
2018-04-13T12:46:48.436Z,520
2018-04-13T12:47:48.342Z,515
2018-04-13T12:48:48.369Z,525
2018-04-13T12:49:48.361Z,530
2018-04-13T12:50:48.329Z,545
2018-04-13T12:51:48.331Z,550
2018-04-13T12:52:48.522Z,545
2018-04-13T12:53:48.353Z,535
2018-04-13T12:54:50.191Z,540
2018-04-13T12:55:48.124Z,545
2018-04-13T12:56:48.473Z,550
2018-04-13T12:57:47.833Z,560
2018-04-13T12:58:48.077Z,575
2018-04-13T12:59:47.587Z,595
2018-04-13T13:00:48.074Z,610
2018-04-13T13:01:48.333Z,620
2018-04-13T13:02:47.829Z,620
2018-04-13T13:03:48.094Z,610
2018-04-13T13:04:48.343Z,605
2018-04-13T13:05:48.095Z,595
2018-04-13T13:06:48.333Z,585
2018-04-13T13:07:47.851Z,580
2018-04-13T13:08:48.524Z,565
2018-04-13T13:09:48.331Z,565
2018-04-13T13:10:48.079Z,570
2018-04-13T13:11:48.076Z,585
2018-04-13T13:12:48.092Z,600
2018-04-13T13:13:48.090Z,605
2018-04-13T13:14:48.335Z,615
2018-04-13T13:15:48.282Z,625
2018-04-13T13:16:48.351Z,635
2018-04-13T13:17:48.364Z,630
2018-04-13T13:18:47.839Z,635
2018-04-13T13:19:48.081Z,630
2018-04-13T13:20:47.586Z,625
2018-04-13T13:21:48.341Z,595
2018-04-13T13:22:48.085Z,570
2018-04-13T13:23:48.091Z,555
2018-04-13T13:24:47.833Z,540
2018-04-13T13:25:48.113Z,535
2018-04-13T13:26:48.342Z,525
2018-04-13T13:27:48.353Z,530
2018-04-13T13:28:48.208Z,550
2018-04-13T13:29:48.346Z,570
2018-04-13T13:30:48.459Z,580
2018-04-13T13:31:48.464Z,580
2018-04-13T13:32:48.357Z,585
2018-04-13T13:33:47.847Z,570
2018-04-13T13:34:48.107Z,565
2018-04-13T13:35:48.108Z,550
2018-04-13T13:36:48.392Z,550
2018-04-13T13:37:48.104Z,555
2018-04-13T13:38:48.386Z,550
2018-04-13T13:39:48.099Z,545
2018-04-13T13:40:48.392Z,530
2018-04-13T13:41:48.124Z,515
2018-04-13T13:42:48.117Z,500
2018-04-13T13:43:48.368Z,495
2018-04-13T13:44:48.377Z,500
2018-04-13T13:45:48.366Z,520
2018-04-13T13:46:48.371Z,525
2018-04-13T13:47:48.386Z,520
2018-04-13T13:48:48.370Z,510
2018-04-13T13:49:48.122Z,495
2018-04-13T13:50:48.120Z,490
2018-04-13T13:51:48.112Z,490
2018-04-13T13:52:48.379Z,490
2018-04-13T13:53:48.181Z,485
2018-04-13T13:54:47.897Z,490
2018-04-13T13:55:48.375Z,495
2018-04-13T13:56:48.390Z,485
2018-04-13T13:57:48.388Z,465
2018-04-13T13:58:47.889Z,465
2018-04-13T13:59:48.375Z,470
2018-04-13T14:00:47.869Z,470
2018-04-13T14:01:48.119Z,465
2018-04-13T14:02:48.367Z,475
2018-04-13T14:03:48.131Z,485
2018-04-13T14:04:47.880Z,475
2018-04-13T14:05:47.892Z,460
2018-04-13T14:06:48.130Z,430
2018-04-13T14:07:48.391Z,410
2018-04-13T14:08:48.129Z,400
2018-04-13T14:09:48.120Z,400